Abbotsford, British Columbia

6:04 PM PST on February 08, 2016 (GMT -0800)
Hwy 1 @ McCallum | | Change Station
CLOSE
Current Station
Personal Weather Station
Location: Abbotsford, BC
Elevation: 190 ft
Nearby Weather Stations

Elev 190 ft 49.03 °N, 122.30 °W | Updated 6 seconds ago

Mostly Cloudy
Mostly Cloudy
49.3 °F
Feels Like 49 °F
N
0.4
Wind Variable Wind from North
Gusts 1.2 mph

Today
High -- | Low -- °F
--% Chance of Precip.
Yesterday
High -- | Low -- °F
Precip. -- in
Pressure 30.40 in
Visibility 10.0 miles
Clouds Clear
Windchill 49 °F
Dew Point 44 °F
Humidity 83%
Rainfall 0.00 in
Snow Depth Not available.
7:30 AM 5:17 PM
New Moon, 0% visible
METAR KBLI 090153Z 00000KT 10SM CLR 07/06 A3037 RMK AO2 SLP293 T00720056
Pressure 30.40 in
Visibility 10.0 miles
Clouds Clear
Windchill 49 °F
Dew Point 44 °F
Humidity 83%
Rainfall 0.00 in
Snow Depth Not available.
7:30 AM 5:17 PM
New Moon, 0% visible
METAR KBLI 090153Z 00000KT 10SM CLR 07/06 A3037 RMK AO2 SLP293 T00720056

10-Day Weather Forecast

Almanac

Astronomy

Feb. 08, 2016 Rise Set
Actual Time
Civil Twilight
Nautical Twilight
Astronomical Twilight
Moon
Length of Visible Light
Length of Day
Tomorrow will be .
, % of the Moon is Illuminated

Today's Extremes

Country Highs Country Lows

Community

WunderPhotos

Upload Photos

1,891,527 photos uploaded!

WunderBlog® & News

Nearby

Air Quality

  Air Quality AQ Index Pollutant
Not available.

Snow Depth

Station Depth Elevation

Earthquake Activity

City Distance Mag. Time & Date
Minimum magnitude displayed is 2.5.

Coastal Water Temperatures

Place Temperature

Stations

Nearby Weather Stations

Station Location Temp. Windchill Dew Point Humidity Wind Precip. Elev Updated Type
                   

Watches & Warnings

There are currently no watches in effect.